CPX762 Details

Departure: Jorge Chávez International Airport (SPJC) at 0930 UTC
Arrival: Miami International Airport (KMIA) at 1530 UTC
Route: XOPLI UG448 IKBIX Y183 PEAKY DVALL CURSO5


Current Weather Information
SPJC 232200Z 28005KT 9999 SCT007 OVC010 18/16 Q1013 NOSIG RMK TX19.3 PP000
KMIA 232153Z 06014G22KT 10SM SCT030 BKN037 29/21 A3007 RMK AO2 SLP181 T02890206